createdAt,value
2023-07-24T00:02:05.152Z,71.47
2023-07-24T00:04:32.598Z,71.29
2023-07-24T00:06:59.456Z,71.51
2023-07-24T00:09:26.030Z,73.62
2023-07-24T00:11:52.766Z,73.79
2023-07-24T00:14:19.323Z,72.02
2023-07-24T00:16:45.993Z,72.88
2023-07-24T00:19:12.746Z,73.03
2023-07-24T00:21:39.355Z,73.07
2023-07-24T00:24:06.120Z,73.89
2023-07-24T00:26:32.902Z,72.52
2023-07-24T00:29:00.432Z,73.83
2023-07-24T00:31:27.119Z,73.69
2023-07-24T00:33:53.728Z,74.61
2023-07-24T00:36:20.316Z,75.32
2023-07-24T00:38:46.891Z,74.01
2023-07-24T00:41:15.060Z,74.52
2023-07-24T00:43:42.355Z,74.50
2023-07-24T00:46:10.551Z,74.93
2023-07-24T00:48:37.215Z,75.04
2023-07-24T00:51:03.857Z,73.18
2023-07-24T00:53:30.489Z,74.05
2023-07-24T00:55:57.230Z,73.77
2023-07-24T00:58:23.894Z,75.30
2023-07-24T01:00:51.161Z,73.53
2023-07-24T01:03:17.931Z,73.51
2023-07-24T01:05:44.535Z,73.76
2023-07-24T01:08:12.577Z,73.15
2023-07-24T01:10:39.211Z,73.46
2023-07-24T01:13:25.713Z,75.02
2023-07-24T01:15:52.280Z,73.74
2023-07-24T01:18:19.476Z,74.12
2023-07-24T01:20:51.618Z,73.56
2023-07-24T01:23:35.683Z,73.76
2023-07-24T01:26:05.691Z,74.34
2023-07-24T01:28:32.341Z,74.21
2023-07-24T01:30:59.004Z,73.84
2023-07-24T01:33:25.986Z,73.48
2023-07-24T01:35:55.894Z,73.25
2023-07-24T01:38:22.903Z,74.53
2023-07-24T01:40:49.648Z,74.30
2023-07-24T01:43:16.367Z,74.32
2023-07-24T01:45:42.906Z,74.70
2023-07-24T01:48:09.593Z,75.29
2023-07-24T01:50:36.204Z,75.58
2023-07-24T01:53:03.357Z,74.65
2023-07-24T01:55:29.957Z,75.16
2023-07-24T01:57:56.658Z,75.56
2023-07-24T02:00:23.281Z,75.61
2023-07-24T02:02:57.672Z,75.48
2023-07-24T02:05:24.508Z,75.73
2023-07-24T02:07:51.090Z,74.51
2023-07-24T02:10:17.766Z,75.59
2023-07-24T02:12:45.435Z,74.72
2023-07-24T02:15:12.067Z,75.71
2023-07-24T02:17:40.613Z,75.64
2023-07-24T02:20:07.672Z,76.35
2023-07-24T02:22:34.519Z,75.75
2023-07-24T02:25:01.117Z,76.80
2023-07-24T02:27:29.355Z,77.08
2023-07-24T02:29:58.189Z,75.94
2023-07-24T02:32:24.806Z,75.73
2023-07-24T02:34:51.973Z,74.94
2023-07-24T02:37:18.612Z,76.89
2023-07-24T02:39:45.357Z,75.24
2023-07-24T02:42:11.962Z,75.35
2023-07-24T02:44:39.355Z,75.02
2023-07-24T02:47:06.020Z,75.89
2023-07-24T02:49:34.440Z,75.38
2023-07-24T02:52:01.103Z,75.11
2023-07-24T02:54:28.388Z,76.45
2023-07-24T02:56:55.009Z,75.69
2023-07-24T02:59:21.696Z,76.26
2023-07-24T03:01:48.670Z,74.71
2023-07-24T03:04:15.272Z,75.13
2023-07-24T03:06:41.926Z,75.69
2023-07-24T03:09:08.587Z,74.95
2023-07-24T03:11:35.198Z,73.68
2023-07-24T03:14:03.064Z,73.62
2023-07-24T03:16:30.016Z,74.13
2023-07-24T03:18:57.157Z,74.38
2023-07-24T03:21:23.784Z,74.29
2023-07-24T03:23:50.435Z,74.29
2023-07-24T03:26:16.976Z,73.57
2023-07-24T03:28:43.618Z,73.35
2023-07-24T03:31:10.278Z,75.05
2023-07-24T03:33:37.021Z,74.29
2023-07-24T03:36:03.675Z,73.85
2023-07-24T03:38:30.326Z,73.72
2023-07-24T03:40:56.889Z,75.06
2023-07-24T03:43:23.583Z,73.96
2023-07-24T03:45:51.870Z,73.99
2023-07-24T03:48:18.502Z,73.80
2023-07-24T03:50:45.061Z,75.22
2023-07-24T03:53:11.693Z,73.67
2023-07-24T03:55:38.280Z,74.17
2023-07-24T03:58:04.964Z,74.65
2023-07-24T04:00:31.632Z,75.23
2023-07-24T04:02:58.312Z,73.64
2023-07-24T04:05:24.985Z,73.51
2023-07-24T04:07:51.621Z,73.33
2023-07-24T04:10:18.191Z,74.72
2023-07-24T04:12:44.800Z,74.65
2023-07-24T04:15:11.383Z,73.86
2023-07-24T04:17:39.954Z,73.18
2023-07-24T04:20:06.892Z,72.96
2023-07-24T04:22:33.535Z,74.45
2023-07-24T04:25:00.075Z,74.69
2023-07-24T04:27:26.697Z,73.64
2023-07-24T04:29:53.277Z,73.59
2023-07-24T04:32:20.109Z,74.16
2023-07-24T04:34:46.738Z,73.68
2023-07-24T04:37:13.420Z,73.73
2023-07-24T04:39:40.423Z,72.22
2023-07-24T04:42:07.550Z,71.54
2023-07-24T04:44:34.133Z,70.99
2023-07-24T04:47:00.867Z,72.58
2023-07-24T04:49:29.868Z,72.75
2023-07-24T04:51:56.549Z,72.79
2023-07-24T04:54:23.126Z,71.92
2023-07-24T04:56:49.846Z,72.29
2023-07-24T04:59:16.379Z,70.98
2023-07-24T05:01:43.387Z,71.79
2023-07-24T05:04:10.036Z,71.35
2023-07-24T05:06:38.355Z,70.99
2023-07-24T05:09:05.108Z,71.65
2023-07-24T05:11:31.722Z,71.54
2023-07-24T05:13:58.324Z,70.48
2023-07-24T05:16:25.012Z,70.85
2023-07-24T05:18:51.636Z,71.50
2023-07-24T05:21:18.223Z,71.05
2023-07-24T05:23:44.806Z,71.29
2023-07-24T05:26:11.388Z,71.71
2023-07-24T05:28:37.972Z,70.62
2023-07-24T05:31:05.330Z,69.89
2023-07-24T05:33:32.818Z,69.49
2023-07-24T05:36:00.589Z,69.74
2023-07-24T05:38:27.750Z,70.34
2023-07-24T05:40:57.920Z,69.12
2023-07-24T05:43:24.851Z,67.76
2023-07-24T05:45:54.613Z,67.63
2023-07-24T05:48:21.689Z,68.13
2023-07-24T05:50:48.857Z,68.18
2023-07-24T05:53:15.873Z,68.43
2023-07-24T05:55:43.558Z,68.71
2023-07-24T05:58:10.631Z,68.92
2023-07-24T06:00:37.642Z,67.72
2023-07-24T06:03:07.047Z,67.88
2023-07-24T06:05:34.960Z,67.65
2023-07-24T06:08:01.521Z,67.35
2023-07-24T06:10:28.240Z,66.68
2023-07-24T06:12:54.855Z,66.35
2023-07-24T06:15:21.607Z,67.08
2023-07-24T06:17:49.080Z,66.18
2023-07-24T06:20:16.994Z,66.66
2023-07-24T06:22:43.579Z,67.51
2023-07-24T06:25:10.212Z,65.66
2023-07-24T06:27:36.785Z,65.46
2023-07-24T06:30:14.272Z,65.12
2023-07-24T06:32:42.843Z,63.44
2023-07-24T06:35:09.536Z,63.90
2023-07-24T06:37:36.197Z,64.02
2023-07-24T06:40:02.833Z,63.88
2023-07-24T06:42:29.500Z,64.76
2023-07-24T06:44:56.055Z,65.30
2023-07-24T06:47:22.807Z,65.04
2023-07-24T06:49:49.399Z,65.19
2023-07-24T06:52:16.097Z,65.09
2023-07-24T06:54:43.061Z,64.45
2023-07-24T06:57:09.761Z,65.27
2023-07-24T06:59:36.504Z,66.05
2023-07-24T07:02:03.305Z,65.02
2023-07-24T07:04:29.907Z,64.67
2023-07-24T07:06:56.594Z,64.62
2023-07-24T07:09:23.183Z,64.22
2023-07-24T07:11:49.787Z,64.38
2023-07-24T07:14:16.424Z,63.88
2023-07-24T07:16:43.131Z,64.90
2023-07-24T07:19:10.733Z,64.12
2023-07-24T07:21:37.520Z,63.39
2023-07-24T07:24:04.360Z,63.59
2023-07-24T07:26:31.526Z,62.76
2023-07-24T07:28:58.425Z,62.46
2023-07-24T07:31:25.117Z,62.71
2023-07-24T07:33:51.960Z,63.13
2023-07-24T07:36:23.834Z,62.36
2023-07-24T07:38:50.490Z,62.33
2023-07-24T07:41:17.128Z,62.45
2023-07-24T07:43:43.761Z,62.23
2023-07-24T07:46:10.328Z,62.57
2023-07-24T07:48:36.946Z,62.66
2023-07-24T07:51:03.541Z,62.25
2023-07-24T07:53:30.184Z,62.55
2023-07-24T07:55:58.146Z,61.70
2023-07-24T07:58:25.082Z,61.11
2023-07-24T08:00:51.673Z,60.12
2023-07-24T08:03:18.425Z,59.92
2023-07-24T08:05:45.056Z,59.56
2023-07-24T08:08:11.689Z,58.53
2023-07-24T08:10:41.465Z,58.18
2023-07-24T08:13:10.854Z,57.67
2023-07-24T08:15:38.193Z,58.46
2023-07-24T08:18:07.085Z,58.54
2023-07-24T08:20:35.983Z,58.07
2023-07-24T08:23:02.652Z,57.22
2023-07-24T08:25:29.220Z,57.29
2023-07-24T08:30:27.788Z,58.00
2023-07-24T08:32:55.234Z,58.56
2023-07-24T08:35:22.023Z,58.01
2023-07-24T08:37:48.595Z,55.88
2023-07-24T08:40:16.521Z,55.16
2023-07-24T08:42:44.363Z,54.99
2023-07-24T08:45:14.845Z,53.68
2023-07-24T08:47:43.057Z,53.21
2023-07-24T08:50:12.282Z,53.19
2023-07-24T08:52:39.854Z,51.26
2023-07-24T08:55:06.959Z,51.81
2023-07-24T08:57:33.675Z,51.04
2023-07-24T09:00:01.985Z,50.77
2023-07-24T09:02:28.646Z,50.31
2023-07-24T09:04:55.228Z,50.79
2023-07-24T09:07:21.890Z,50.85
2023-07-24T09:09:50.274Z,51.40
2023-07-24T09:12:17.242Z,50.10
2023-07-24T09:14:46.266Z,51.00
2023-07-24T09:17:13.088Z,50.97
2023-07-24T09:19:39.790Z,51.83
2023-07-24T09:22:14.094Z,51.66
2023-07-24T09:24:57.086Z,51.78
2023-07-24T09:27:28.340Z,52.66
2023-07-24T09:29:56.372Z,53.12
2023-07-24T09:32:23.672Z,56.57
2023-07-24T09:34:52.159Z,60.68
2023-07-24T09:37:24.653Z,62.05
2023-07-24T09:39:51.274Z,61.13
2023-07-24T09:42:17.865Z,59.86
2023-07-24T09:44:44.470Z,58.35
2023-07-24T09:47:31.312Z,60.55
2023-07-24T09:49:57.995Z,62.61
2023-07-24T09:52:25.545Z,62.93
2023-07-24T09:54:52.110Z,62.79
2023-07-24T09:57:21.739Z,63.95
2023-07-24T09:59:49.687Z,63.28
2023-07-24T10:02:16.728Z,64.83
2023-07-24T10:04:44.209Z,65.20
2023-07-24T10:07:10.986Z,65.77
2023-07-24T10:09:38.316Z,65.01
2023-07-24T10:12:05.212Z,64.82
2023-07-24T10:14:32.198Z,64.99
2023-07-24T10:16:58.925Z,63.80
2023-07-24T10:19:25.600Z,63.53
2023-07-24T10:21:52.652Z,62.84
2023-07-24T10:24:35.455Z,62.46
2023-07-24T10:27:06.674Z,62.33
2023-07-24T10:29:35.532Z,62.10
2023-07-24T10:32:02.466Z,60.73
2023-07-24T10:34:39.502Z,60.77
2023-07-24T10:37:08.669Z,61.05
2023-07-24T10:39:39.404Z,60.53
2023-07-24T10:42:06.923Z,61.10
2023-07-24T10:44:33.608Z,61.47
2023-07-24T10:47:00.261Z,61.68
2023-07-24T10:49:26.808Z,60.69
2023-07-24T10:51:57.049Z,60.22
2023-07-24T10:54:23.680Z,58.36
2023-07-24T10:56:52.124Z,59.21
2023-07-24T10:59:18.881Z,55.81
2023-07-24T11:01:45.576Z,53.22
2023-07-24T11:04:13.735Z,53.10
2023-07-24T11:06:40.929Z,52.76
2023-07-24T11:09:07.547Z,53.59
2023-07-24T11:11:35.629Z,52.59
2023-07-24T11:14:03.278Z,51.44
2023-07-24T11:16:32.629Z,50.45
2023-07-24T11:18:59.568Z,49.14
2023-07-24T11:21:26.547Z,48.60
2023-07-24T11:23:54.084Z,48.50
2023-07-24T11:26:21.936Z,49.91
2023-07-24T11:28:50.557Z,48.75
2023-07-24T11:31:20.500Z,45.48
2023-07-24T11:33:48.106Z,46.43
2023-07-24T11:36:15.295Z,48.12
2023-07-24T11:38:41.965Z,48.84
2023-07-24T11:41:09.441Z,48.08
2023-07-24T11:43:36.086Z,48.88
2023-07-24T11:46:02.719Z,46.20
2023-07-24T11:48:29.350Z,46.43
2023-07-24T11:50:56.675Z,47.79
2023-07-24T11:53:25.018Z,49.13
2023-07-24T11:55:55.929Z,50.01
2023-07-24T11:58:23.234Z,48.17
2023-07-24T12:00:52.953Z,48.05
2023-07-24T12:03:23.646Z,46.75
2023-07-24T12:05:51.716Z,49.06
2023-07-24T12:08:20.324Z,50.00
2023-07-24T12:10:46.937Z,48.12
2023-07-24T12:13:13.741Z,44.25
2023-07-24T12:15:40.377Z,41.00
2023-07-24T12:18:07.643Z,39.97
2023-07-24T12:20:35.143Z,38.97
2023-07-24T12:23:01.799Z,38.86
2023-07-24T12:25:28.416Z,38.35
2023-07-24T12:27:55.024Z,37.80
2023-07-24T12:30:21.602Z,38.38
2023-07-24T12:32:48.236Z,36.50
2023-07-24T12:35:17.460Z,36.80
2023-07-24T12:37:44.589Z,38.10
2023-07-24T12:40:11.428Z,39.69
2023-07-24T12:42:38.030Z,43.17
2023-07-24T12:45:05.062Z,42.66
2023-07-24T12:47:32.414Z,44.10
2023-07-24T12:50:00.259Z,46.66
2023-07-24T12:52:27.189Z,45.70
2023-07-24T12:55:01.593Z,46.49
2023-07-24T12:57:29.186Z,45.35
2023-07-24T12:59:55.931Z,44.38
2023-07-24T13:02:25.293Z,45.25
2023-07-24T13:04:52.061Z,46.36
2023-07-24T13:07:18.713Z,44.39
2023-07-24T13:09:45.313Z,44.72
2023-07-24T13:12:12.109Z,45.22
2023-07-24T13:14:40.327Z,45.96
2023-07-24T13:17:09.440Z,47.18
2023-07-24T13:19:36.126Z,49.29
2023-07-24T13:22:02.782Z,47.79
2023-07-24T13:24:29.431Z,48.80
2023-07-24T13:26:56.142Z,50.10
2023-07-24T13:29:25.299Z,50.23
2023-07-24T13:31:55.603Z,50.84
2023-07-24T13:34:22.849Z,51.59
2023-07-24T13:36:49.606Z,49.58
2023-07-24T13:39:16.182Z,51.84
2023-07-24T13:41:42.996Z,53.95
2023-07-24T13:44:10.003Z,54.42
2023-07-24T13:46:39.679Z,55.29
2023-07-24T13:49:07.091Z,55.47
2023-07-24T13:51:33.703Z,56.61
2023-07-24T13:54:02.629Z,56.57
2023-07-24T13:56:32.397Z,57.06
2023-07-24T13:58:59.176Z,56.66
2023-07-24T14:01:26.118Z,57.25
2023-07-24T14:03:53.026Z,58.05
2023-07-24T14:06:19.868Z,59.52
2023-07-24T14:08:46.440Z,59.83
2023-07-24T14:11:13.035Z,61.31
2023-07-24T14:13:39.610Z,61.97
2023-07-24T14:16:06.395Z,63.20
2023-07-24T14:18:32.998Z,65.02
2023-07-24T14:21:00.748Z,65.19
2023-07-24T14:23:27.492Z,67.04
2023-07-24T14:25:54.103Z,68.43
2023-07-24T14:28:20.716Z,69.48
2023-07-24T14:30:47.294Z,70.54
2023-07-24T14:33:13.872Z,70.91
2023-07-24T14:35:40.538Z,72.37
2023-07-24T14:38:07.185Z,72.63
2023-07-24T14:40:33.844Z,70.37
2023-07-24T14:43:00.429Z,70.22
2023-07-24T14:45:27.124Z,68.89
2023-07-24T14:47:53.872Z,66.78
2023-07-24T14:50:20.617Z,68.30
2023-07-24T14:52:47.227Z,69.08
2023-07-24T14:55:14.375Z,67.63
2023-07-24T14:57:40.961Z,67.39
2023-07-24T15:00:08.172Z,65.92
2023-07-24T15:02:34.888Z,63.80
2023-07-24T15:05:01.587Z,64.98
2023-07-24T15:07:28.717Z,66.69
2023-07-24T15:09:55.788Z,65.83
2023-07-24T15:12:22.489Z,64.48
2023-07-24T15:14:49.151Z,64.04
2023-07-24T15:17:15.988Z,63.37
2023-07-24T15:19:42.610Z,63.77
2023-07-24T15:22:09.201Z,63.61
2023-07-24T15:24:35.862Z,65.15
2023-07-24T15:27:09.102Z,64.74
2023-07-24T15:29:36.518Z,65.19
2023-07-24T15:32:03.857Z,65.57
2023-07-24T15:34:30.787Z,66.71
2023-07-24T15:36:57.534Z,66.99
2023-07-24T15:39:24.379Z,68.19
2023-07-24T15:41:51.021Z,70.76
2023-07-24T15:44:17.763Z,72.13
2023-07-24T15:46:45.243Z,71.95
2023-07-24T15:49:12.038Z,72.98
2023-07-24T15:51:41.172Z,73.18
2023-07-24T15:54:09.260Z,75.46
2023-07-24T15:56:35.905Z,77.45
2023-07-24T15:59:02.593Z,78.80
2023-07-24T16:01:29.692Z,79.05
2023-07-24T16:03:56.841Z,79.50
2023-07-24T16:06:23.535Z,79.66
2023-07-24T16:08:50.128Z,80.07
2023-07-24T16:11:16.706Z,80.05
2023-07-24T16:13:45.152Z,81.35
2023-07-24T16:16:15.196Z,81.19
2023-07-24T16:18:42.444Z,80.21
2023-07-24T16:21:09.128Z,80.54
2023-07-24T16:23:35.919Z,84.71
2023-07-24T16:26:02.785Z,85.29
2023-07-24T16:28:29.463Z,85.08
2023-07-24T16:30:58.777Z,86.63
2023-07-24T16:33:25.843Z,84.62
2023-07-24T16:35:53.096Z,84.41
2023-07-24T16:38:19.805Z,83.47
2023-07-24T16:40:46.399Z,81.41
2023-07-24T16:43:13.256Z,77.74
2023-07-24T16:45:39.957Z,81.11
2023-07-24T16:48:07.200Z,81.59
2023-07-24T16:50:36.218Z,80.11
2023-07-24T16:53:03.380Z,80.47
2023-07-24T16:55:30.592Z,81.12
2023-07-24T16:57:57.570Z,80.61
2023-07-24T17:00:24.315Z,83.86
2023-07-24T17:02:51.145Z,81.04
2023-07-24T17:05:17.947Z,78.30
2023-07-24T17:07:44.600Z,78.80
2023-07-24T17:10:11.344Z,77.26
2023-07-24T17:12:38.000Z,76.72
2023-07-24T17:15:04.799Z,76.32
2023-07-24T17:17:31.506Z,73.85
2023-07-24T17:19:58.167Z,76.50
2023-07-24T17:22:24.818Z,76.25
2023-07-24T17:24:51.626Z,74.65
2023-07-24T17:27:18.357Z,74.90
2023-07-24T17:29:45.135Z,75.92
2023-07-24T17:32:13.078Z,76.23
2023-07-24T17:34:40.035Z,76.27
2023-07-24T17:37:07.364Z,73.59
2023-07-24T17:39:34.130Z,74.36
2023-07-24T17:42:00.836Z,78.33
2023-07-24T17:44:27.477Z,78.92
2023-07-24T17:46:54.312Z,78.12
2023-07-24T17:49:21.115Z,76.70
2023-07-24T17:51:47.757Z,78.71
2023-07-24T17:54:14.313Z,77.72
2023-07-24T17:56:41.587Z,77.81
2023-07-24T17:59:08.189Z,79.56
2023-07-24T18:01:36.269Z,79.64
2023-07-24T18:04:02.953Z,79.90
2023-07-24T18:06:29.685Z,81.57
2023-07-24T18:08:56.362Z,79.87
2023-07-24T18:11:23.091Z,78.53
2023-07-24T18:13:49.642Z,78.23
2023-07-24T18:16:17.428Z,80.58
2023-07-24T18:18:44.103Z,79.14
2023-07-24T18:21:10.752Z,79.68
2023-07-24T18:23:37.407Z,81.39
2023-07-24T18:26:04.273Z,80.92
2023-07-24T18:28:30.869Z,82.20
2023-07-24T18:30:57.551Z,80.93
2023-07-24T18:33:24.171Z,80.91
2023-07-24T18:35:53.393Z,79.63
2023-07-24T18:38:21.397Z,80.32
2023-07-24T18:40:48.137Z,80.78
2023-07-24T18:43:14.744Z,80.52
2023-07-24T18:45:41.423Z,83.07
2023-07-24T18:48:10.373Z,84.05
2023-07-24T18:50:37.031Z,83.14
2023-07-24T18:53:03.761Z,82.95
2023-07-24T18:55:30.488Z,82.46
2023-07-24T18:57:57.084Z,83.42
2023-07-24T19:00:23.633Z,85.67
2023-07-24T19:02:50.326Z,86.38
2023-07-24T19:05:16.974Z,85.44
2023-07-24T19:07:43.660Z,85.53
2023-07-24T19:10:11.392Z,86.72
2023-07-24T19:12:39.946Z,85.64
2023-07-24T19:15:09.489Z,83.81
2023-07-24T19:17:36.228Z,83.31
2023-07-24T19:20:02.940Z,83.31
2023-07-24T19:22:29.564Z,83.51
2023-07-24T19:24:56.283Z,83.45
2023-07-24T19:27:23.573Z,82.96
2023-07-24T19:29:51.195Z,84.34
2023-07-24T19:32:18.154Z,84.70
2023-07-24T19:34:45.169Z,84.19
2023-07-24T19:37:12.124Z,83.60
2023-07-24T19:39:41.993Z,84.60
2023-07-24T19:42:12.259Z,83.47
2023-07-24T19:44:39.019Z,83.91
2023-07-24T19:47:05.761Z,82.48
2023-07-24T19:49:35.908Z,82.73
2023-07-24T19:52:03.111Z,83.20
2023-07-24T19:54:30.291Z,82.90
2023-07-24T19:56:57.120Z,83.74
2023-07-24T19:59:23.870Z,85.12
2023-07-24T20:01:50.500Z,84.37
2023-07-24T20:04:17.176Z,86.51
2023-07-24T20:06:43.808Z,86.58
2023-07-24T20:09:10.396Z,86.07
2023-07-24T20:11:39.883Z,86.16
2023-07-24T20:14:06.465Z,86.09
2023-07-24T20:16:33.223Z,88.32
2023-07-24T20:18:59.848Z,87.92
2023-07-24T20:21:26.650Z,87.94
2023-07-24T20:23:53.305Z,87.32
2023-07-24T20:26:21.141Z,86.64
2023-07-24T20:28:48.155Z,85.58
2023-07-24T20:31:14.813Z,86.02
2023-07-24T20:33:41.390Z,85.44
2023-07-24T20:36:08.620Z,84.77
2023-07-24T20:38:35.285Z,85.06
2023-07-24T20:41:02.086Z,84.77
2023-07-24T20:43:29.199Z,84.21
2023-07-24T20:45:55.896Z,85.16
2023-07-24T20:48:22.968Z,84.30
2023-07-24T20:50:49.798Z,83.64
2023-07-24T20:53:16.384Z,84.03
2023-07-24T20:55:43.018Z,84.10
2023-07-24T20:58:10.427Z,84.71
2023-07-24T21:00:37.038Z,83.89
2023-07-24T21:03:03.739Z,83.68
2023-07-24T21:05:30.552Z,83.30
2023-07-24T21:07:59.850Z,82.79
2023-07-24T21:10:26.530Z,82.44
2023-07-24T21:12:53.085Z,81.59
2023-07-24T21:15:19.731Z,81.52
2023-07-24T21:17:46.356Z,81.15
2023-07-24T21:20:13.327Z,81.92
2023-07-24T21:22:39.983Z,82.03
2023-07-24T21:25:06.837Z,82.33
2023-07-24T21:27:33.420Z,82.14
2023-07-24T21:30:00.086Z,82.06
2023-07-24T21:32:26.702Z,82.13
2023-07-24T21:34:53.346Z,82.95
2023-07-24T21:37:19.952Z,83.05
2023-07-24T21:39:46.811Z,82.78
2023-07-24T21:42:13.361Z,83.30
2023-07-24T21:44:40.013Z,83.17
2023-07-24T21:47:06.757Z,84.00
2023-07-24T21:49:33.422Z,84.76
2023-07-24T21:52:01.433Z,84.26
2023-07-24T21:54:28.110Z,84.53
2023-07-24T21:56:54.714Z,84.19
2023-07-24T21:59:21.405Z,84.02
2023-07-24T22:01:47.986Z,84.97
2023-07-24T22:04:15.349Z,85.80
2023-07-24T22:06:41.975Z,85.44
2023-07-24T22:09:08.638Z,86.01
2023-07-24T22:11:36.906Z,86.43
2023-07-24T22:14:03.680Z,86.18
2023-07-24T22:16:30.311Z,87.23
2023-07-24T22:18:56.941Z,86.24
2023-07-24T22:21:23.543Z,85.31
2023-07-24T22:23:50.173Z,86.08
2023-07-24T22:26:16.879Z,86.40
2023-07-24T22:28:43.516Z,86.10
2023-07-24T22:31:10.835Z,85.67
2023-07-24T22:33:37.683Z,86.17
2023-07-24T22:36:04.572Z,86.29
2023-07-24T22:38:31.279Z,85.89
2023-07-24T22:40:57.847Z,86.03
2023-07-24T22:43:24.494Z,85.46
2023-07-24T22:45:51.080Z,87.05
2023-07-24T22:48:17.783Z,87.19
2023-07-24T22:50:44.484Z,87.38
2023-07-24T22:53:11.086Z,87.80
2023-07-24T22:55:37.621Z,87.82
2023-07-24T22:58:04.721Z,88.38
2023-07-24T23:00:31.330Z,87.93
2023-07-24T23:02:58.046Z,87.44
2023-07-24T23:05:24.636Z,88.15
2023-07-24T23:07:55.949Z,87.89
2023-07-24T23:10:22.806Z,88.15
2023-07-24T23:12:49.461Z,89.05
2023-07-24T23:15:16.093Z,88.61
2023-07-24T23:17:42.702Z,88.80
2023-07-24T23:20:09.572Z,88.08
2023-07-24T23:22:36.182Z,88.69
2023-07-24T23:25:02.814Z,88.32
2023-07-24T23:27:29.420Z,88.74
2023-07-24T23:29:56.017Z,89.40
2023-07-24T23:32:22.675Z,90.98
2023-07-24T23:34:49.355Z,89.80
2023-07-24T23:37:15.935Z,89.21
2023-07-24T23:39:42.597Z,89.24
2023-07-24T23:42:09.219Z,89.96
2023-07-24T23:44:35.833Z,89.12
2023-07-24T23:47:02.438Z,88.09
2023-07-24T23:49:29.094Z,88.89
2023-07-24T23:51:55.657Z,87.87
2023-07-24T23:54:22.248Z,88.55
2023-07-24T23:56:48.869Z,88.34
2023-07-24T23:59:15.469Z,89.28
